createdAt,value
2018-12-03T00:01:07.217Z,1.00
2018-12-03T00:06:01.801Z,0.90
2018-12-03T00:10:56.377Z,0.80
2018-12-03T00:15:50.910Z,0.90
2018-12-03T00:20:45.701Z,0.90
2018-12-03T00:25:40.256Z,1.00
2018-12-03T00:30:34.804Z,1.10
2018-12-03T00:35:29.352Z,1.10
2018-12-03T00:40:23.888Z,1.10
2018-12-03T00:45:18.417Z,1.10
2018-12-03T00:50:12.956Z,1.10
2018-12-03T00:55:08.296Z,1.20
2018-12-03T01:00:02.982Z,1.20
2018-12-03T01:04:57.603Z,1.20
2018-12-03T01:09:52.239Z,1.20
2018-12-03T01:14:46.845Z,1.20
2018-12-03T01:19:41.397Z,1.20
2018-12-03T01:24:35.965Z,1.30
2018-12-03T01:29:30.465Z,1.30
2018-12-03T01:34:25.091Z,1.30
2018-12-03T01:39:19.632Z,1.30
2018-12-03T01:44:14.166Z,1.30
2018-12-03T01:49:08.737Z,1.40
2018-12-03T01:54:03.289Z,1.40
2018-12-03T01:58:57.845Z,1.40
2018-12-03T02:03:52.377Z,1.40
2018-12-03T02:08:46.922Z,1.50
2018-12-03T02:13:41.449Z,1.50
2018-12-03T02:18:36.056Z,1.50
2018-12-03T02:23:30.577Z,1.50
2018-12-03T02:28:25.264Z,1.60
2018-12-03T02:33:19.805Z,1.60
2018-12-03T02:38:14.410Z,1.60
2018-12-03T02:43:08.949Z,1.60
2018-12-03T02:48:03.477Z,1.70
2018-12-03T02:52:58.029Z,1.60
2018-12-03T02:57:52.569Z,1.60
2018-12-03T03:02:47.126Z,1.60
2018-12-03T03:07:41.752Z,1.60
2018-12-03T03:12:36.297Z,1.60
2018-12-03T03:17:30.817Z,1.70
2018-12-03T03:22:25.522Z,1.70
2018-12-03T03:27:20.024Z,1.70
2018-12-03T03:32:14.573Z,1.70
2018-12-03T03:37:09.092Z,1.70
2018-12-03T03:42:03.731Z,1.80
2018-12-03T03:46:58.269Z,1.70
2018-12-03T03:51:52.812Z,1.70
2018-12-03T03:56:47.318Z,1.70
2018-12-03T04:01:41.970Z,1.70
2018-12-03T04:06:36.584Z,1.70
2018-12-03T04:11:31.130Z,1.70
2018-12-03T04:16:25.672Z,1.80
2018-12-03T04:21:20.213Z,1.80
2018-12-03T04:26:14.949Z,1.80
2018-12-03T04:31:09.721Z,1.90
2018-12-03T04:36:04.288Z,1.80
2018-12-03T04:41:05.242Z,1.90
2018-12-03T04:45:59.779Z,1.80
2018-12-03T04:50:54.305Z,1.90
2018-12-03T04:55:48.837Z,1.90
2018-12-03T05:00:43.348Z,1.90
2018-12-03T05:05:37.875Z,2.00
2018-12-03T05:10:32.424Z,2.00
2018-12-03T05:15:27.029Z,1.90
2018-12-03T05:20:22.947Z,2.00
2018-12-03T05:25:19.458Z,2.00
2018-12-03T05:30:14.132Z,2.00
2018-12-03T05:35:12.860Z,2.00
2018-12-03T05:40:10.811Z,2.00
2018-12-03T05:45:06.148Z,2.10
2018-12-03T05:50:00.693Z,2.10
2018-12-03T05:54:55.249Z,2.10
2018-12-03T05:59:49.781Z,2.10
2018-12-03T06:04:44.365Z,2.20
2018-12-03T06:09:39.136Z,2.20
2018-12-03T06:14:33.740Z,2.30
2018-12-03T06:19:28.448Z,2.30
2018-12-03T06:24:23.496Z,2.30
2018-12-03T06:29:18.152Z,2.30
2018-12-03T06:34:13.665Z,2.30
2018-12-03T06:39:10.021Z,2.30
2018-12-03T06:44:04.787Z,2.30
2018-12-03T06:48:59.391Z,2.30
2018-12-03T06:53:54.027Z,2.30
2018-12-03T06:58:48.645Z,2.40
2018-12-03T07:03:43.243Z,2.40
2018-12-03T07:08:37.849Z,2.40
2018-12-03T07:13:32.482Z,2.40
2018-12-03T07:18:27.407Z,2.40
2018-12-03T07:23:22.077Z,2.40
2018-12-03T07:28:16.713Z,2.50
2018-12-03T07:33:11.378Z,2.50
2018-12-03T07:38:06.153Z,2.60
2018-12-03T07:43:00.817Z,2.70
2018-12-03T07:47:55.474Z,2.80
2018-12-03T07:52:50.150Z,2.90
2018-12-03T07:57:48.363Z,3.00
2018-12-03T08:02:43.011Z,3.10
2018-12-03T08:07:37.642Z,3.20
2018-12-03T08:12:32.303Z,3.30
2018-12-03T08:17:27.489Z,3.30
2018-12-03T08:22:22.130Z,3.40
2018-12-03T08:27:16.765Z,3.50
2018-12-03T08:32:11.364Z,3.60
2018-12-03T08:37:06.135Z,3.80
2018-12-03T08:42:00.779Z,3.90
2018-12-03T08:46:55.369Z,4.00
2018-12-03T08:51:49.988Z,4.20
2018-12-03T08:56:46.791Z,4.50
2018-12-03T09:01:41.368Z,4.50
2018-12-03T09:06:35.961Z,4.50
2018-12-03T09:11:30.584Z,4.50
2018-12-03T09:16:25.236Z,4.60
2018-12-03T09:21:20.025Z,4.70
2018-12-03T09:26:15.480Z,4.80
2018-12-03T09:31:10.675Z,4.90
2018-12-03T09:36:05.905Z,5.10
2018-12-03T09:41:01.347Z,5.20
2018-12-03T09:45:56.011Z,5.40
2018-12-03T09:50:50.708Z,5.50
2018-12-03T09:55:45.335Z,5.60
2018-12-03T10:00:40.038Z,5.70
2018-12-03T10:06:12.898Z,5.90
2018-12-03T10:11:07.575Z,6.20
2018-12-03T10:16:02.212Z,6.40
2018-12-03T10:20:58.457Z,6.70
2018-12-03T10:25:56.031Z,7.00
2018-12-03T10:30:51.657Z,7.10
2018-12-03T10:35:46.306Z,7.30
2018-12-03T10:40:43.015Z,7.90
2018-12-03T10:45:37.719Z,8.20
2018-12-03T10:50:32.505Z,8.60
2018-12-03T10:55:27.319Z,9.10
2018-12-03T11:00:27.139Z,9.40
2018-12-03T11:05:29.399Z,9.90
2018-12-03T11:10:26.071Z,10.20
2018-12-03T11:15:21.877Z,10.30
2018-12-03T11:20:16.531Z,10.20
2018-12-03T11:25:13.661Z,10.10
2018-12-03T11:30:11.203Z,10.30
2018-12-03T11:35:08.300Z,10.30
2018-12-03T11:40:24.801Z,10.10
2018-12-03T11:45:19.463Z,10.30
2018-12-03T11:50:14.279Z,10.60
2018-12-03T11:55:09.554Z,11.30
2018-12-03T12:00:04.826Z,12.20
2018-12-03T12:04:59.467Z,13.10
2018-12-03T12:09:54.094Z,14.00
2018-12-03T12:14:50.771Z,14.70
2018-12-03T12:19:45.410Z,15.10
2018-12-03T12:24:40.039Z,15.40
2018-12-03T12:29:34.792Z,16.00
2018-12-03T12:34:29.498Z,16.20
2018-12-03T12:39:24.119Z,16.30
2018-12-03T12:44:18.772Z,16.40
2018-12-03T12:49:14.626Z,16.70
2018-12-03T12:54:09.302Z,16.90
2018-12-03T12:59:04.353Z,17.00
2018-12-03T13:03:59.025Z,17.00
2018-12-03T13:08:53.686Z,16.80
2018-12-03T13:13:48.355Z,16.40
2018-12-03T13:18:42.986Z,15.90
2018-12-03T13:23:38.176Z,15.60
2018-12-03T13:28:33.738Z,15.40
2018-12-03T13:33:28.806Z,15.00
2018-12-03T13:38:23.438Z,14.40
2018-12-03T13:43:18.285Z,14.10
2018-12-03T13:48:12.925Z,13.90
2018-12-03T13:53:08.275Z,13.40
2018-12-03T13:58:03.634Z,12.80
2018-12-03T14:03:02.493Z,12.30
2018-12-03T14:09:02.310Z,11.90
2018-12-03T14:14:12.365Z,11.40
2018-12-03T14:19:12.655Z,10.90
2018-12-03T14:24:17.257Z,10.50
2018-12-03T14:29:11.837Z,10.30
2018-12-03T14:34:06.526Z,10.10
2018-12-03T14:39:01.143Z,10.00
2018-12-03T14:43:55.810Z,9.80
2018-12-03T14:48:50.454Z,9.70
2018-12-03T14:53:45.088Z,9.60
2018-12-03T14:58:39.717Z,9.30
2018-12-03T15:03:34.355Z,9.10
2018-12-03T15:08:28.978Z,8.80
2018-12-03T15:13:23.632Z,8.70
2018-12-03T15:18:18.394Z,8.60
2018-12-03T15:23:13.047Z,8.40
2018-12-03T15:28:07.716Z,8.40
2018-12-03T15:33:02.361Z,8.30
2018-12-03T15:37:57.063Z,8.30
2018-12-03T15:42:51.691Z,8.20
2018-12-03T15:47:46.326Z,8.10
2018-12-03T15:52:41.004Z,8.00
2018-12-03T15:57:35.634Z,7.90
2018-12-03T16:02:30.403Z,7.70
2018-12-03T16:07:25.037Z,7.50
2018-12-03T16:12:19.714Z,7.40
2018-12-03T16:17:14.443Z,7.30
2018-12-03T16:22:09.133Z,7.20
2018-12-03T16:27:03.801Z,7.00
2018-12-03T16:31:58.593Z,7.00
2018-12-03T16:36:53.898Z,6.90
2018-12-03T16:41:48.679Z,6.90
2018-12-03T16:46:43.479Z,6.80
2018-12-03T16:51:38.520Z,6.70
2018-12-03T16:56:33.149Z,6.70
2018-12-03T17:01:27.860Z,6.80
2018-12-03T17:06:22.513Z,6.80
2018-12-03T17:11:17.155Z,6.70
2018-12-03T17:16:11.847Z,6.80
2018-12-03T17:21:17.034Z,6.80
2018-12-03T17:26:11.745Z,6.70
2018-12-03T17:31:06.418Z,6.60
2018-12-03T17:36:01.206Z,6.60
2018-12-03T17:40:55.902Z,6.60
2018-12-03T17:45:50.626Z,6.60
2018-12-03T17:50:45.467Z,6.50
2018-12-03T17:55:40.144Z,6.50
2018-12-03T18:00:37.034Z,6.40
2018-12-03T18:05:31.776Z,6.40
2018-12-03T18:10:26.475Z,6.40
2018-12-03T18:15:21.151Z,6.30
2018-12-03T18:20:15.832Z,6.30
2018-12-03T18:25:10.519Z,6.30
2018-12-03T18:30:07.463Z,6.30
2018-12-03T18:35:02.553Z,6.30
2018-12-03T18:39:57.932Z,6.30
2018-12-03T18:44:52.718Z,6.20
2018-12-03T18:49:49.351Z,6.20
2018-12-03T18:54:44.231Z,6.10
2018-12-03T18:59:39.106Z,6.00
2018-12-03T19:04:33.847Z,6.00
2018-12-03T19:09:28.546Z,5.90
2018-12-03T19:14:23.456Z,5.90
2018-12-03T19:19:18.630Z,5.90
2018-12-03T19:24:13.520Z,5.90
2018-12-03T19:29:09.442Z,5.80
2018-12-03T19:34:08.891Z,5.80
2018-12-03T19:39:09.130Z,5.80
2018-12-03T19:44:09.673Z,5.80
2018-12-03T19:49:09.203Z,5.80
2018-12-03T19:54:08.927Z,5.80
2018-12-03T19:59:09.353Z,5.80
2018-12-03T20:04:52.720Z,5.70
2018-12-03T20:09:48.228Z,5.70
2018-12-03T20:14:42.938Z,5.70
2018-12-03T20:19:37.900Z,5.70
2018-12-03T20:24:32.740Z,5.70
2018-12-03T20:29:33.273Z,5.70
2018-12-03T20:34:45.304Z,5.60
2018-12-03T20:40:53.598Z,5.60
2018-12-03T20:48:08.633Z,5.60
2018-12-03T20:53:03.340Z,5.60
2018-12-03T20:57:57.950Z,5.50
2018-12-03T21:02:56.210Z,5.40
2018-12-03T21:07:50.876Z,5.40
2018-12-03T21:12:46.384Z,5.40
2018-12-03T21:17:42.907Z,5.30
2018-12-03T21:22:38.026Z,5.10
2018-12-03T21:27:32.719Z,5.10
2018-12-03T21:32:27.422Z,5.00
2018-12-03T21:37:26.009Z,5.00
2018-12-03T21:42:21.595Z,4.90
2018-12-03T21:47:16.512Z,4.80
2018-12-03T21:52:11.148Z,4.80
2018-12-03T21:57:10.744Z,4.70
2018-12-03T22:02:02.627Z,4.70
2018-12-03T22:06:57.290Z,4.60
2018-12-03T22:11:51.917Z,4.50
2018-12-03T22:16:46.528Z,4.50
2018-12-03T22:21:41.159Z,4.40
2018-12-03T22:26:35.777Z,4.40
2018-12-03T22:31:30.394Z,4.40
2018-12-03T22:36:25.037Z,4.40
2018-12-03T22:41:19.686Z,4.30
2018-12-03T22:46:14.324Z,4.30
2018-12-03T22:51:09.996Z,4.30
2018-12-03T22:56:04.648Z,4.20
2018-12-03T23:01:06.980Z,4.10
2018-12-03T23:06:01.617Z,4.00
2018-12-03T23:10:56.382Z,4.00
2018-12-03T23:15:50.966Z,3.90
2018-12-03T23:20:45.658Z,3.80
2018-12-03T23:25:40.267Z,3.70
2018-12-03T23:30:34.886Z,3.60
2018-12-03T23:35:29.586Z,3.50
2018-12-03T23:40:24.187Z,3.50
2018-12-03T23:45:18.810Z,3.40
2018-12-03T23:50:13.566Z,3.40
2018-12-03T23:55:08.213Z,3.30
